sensor_id;sensor_type;location;lat;lon;timestamp;temperature;humidity
26270;DHT22;15937;50.612;6.656;2024-03-02T00:01:35;8.30;99.90
26270;DHT22;15937;50.612;6.656;2024-03-02T00:05:37;8.30;99.90
26270;DHT22;15937;50.612;6.656;2024-03-02T00:09:39;8.30;99.90
26270;DHT22;15937;50.612;6.656;2024-03-02T00:13:42;8.30;99.90
26270;DHT22;15937;50.612;6.656;2024-03-02T00:17:44;8.40;99.90
26270;DHT22;15937;50.612;6.656;2024-03-02T00:21:47;8.50;99.90
26270;DHT22;15937;50.612;6.656;2024-03-02T00:25:51;8.50;99.90
26270;DHT22;15937;50.612;6.656;2024-03-02T00:29:55;8.50;99.90
26270;DHT22;15937;50.612;6.656;2024-03-02T00:34:02;8.40;99.90
26270;DHT22;15937;50.612;6.656;2024-03-02T00:38:06;8.40;99.90
26270;DHT22;15937;50.612;6.656;2024-03-02T00:42:09;8.30;99.90
26270;DHT22;15937;50.612;6.656;2024-03-02T00:46:13;8.20;99.90
26270;DHT22;15937;50.612;6.656;2024-03-02T00:50:17;8.20;99.90
26270;DHT22;15937;50.612;6.656;2024-03-02T00:54:33;8.20;99.90
26270;DHT22;15937;50.612;6.656;2024-03-02T00:58:35;8.30;99.90
26270;DHT22;15937;50.612;6.656;2024-03-02T01:02:38;8.40;99.90
26270;DHT22;15937;50.612;6.656;2024-03-02T01:06:41;8.50;99.90
26270;DHT22;15937;50.612;6.656;2024-03-02T01:10:44;8.60;99.90
26270;DHT22;15937;50.612;6.656;2024-03-02T01:14:46;8.70;99.90
26270;DHT22;15937;50.612;6.656;2024-03-02T01:18:48;8.80;99.90
26270;DHT22;15937;50.612;6.656;2024-03-02T01:22:50;8.80;99.90
26270;DHT22;15937;50.612;6.656;2024-03-02T01:26:52;8.80;99.90
26270;DHT22;15937;50.612;6.656;2024-03-02T01:30:55;8.80;99.90
26270;DHT22;15937;50.612;6.656;2024-03-02T01:35:00;8.90;99.90
26270;DHT22;15937;50.612;6.656;2024-03-02T01:39:02;8.90;99.90
26270;DHT22;15937;50.612;6.656;2024-03-02T01:43:05;8.80;99.90
26270;DHT22;15937;50.612;6.656;2024-03-02T01:47:08;8.80;99.90
26270;DHT22;15937;50.612;6.656;2024-03-02T01:51:10;8.90;99.90
26270;DHT22;15937;50.612;6.656;2024-03-02T01:55:12;8.90;99.90
26270;DHT22;15937;50.612;6.656;2024-03-02T01:59:15;8.90;99.90
26270;DHT22;15937;50.612;6.656;2024-03-02T02:03:17;8.90;99.90
26270;DHT22;15937;50.612;6.656;2024-03-02T02:07:19;8.90;99.90
26270;DHT22;15937;50.612;6.656;2024-03-02T02:11:21;8.90;99.90
26270;DHT22;15937;50.612;6.656;2024-03-02T02:15:27;8.90;99.90
26270;DHT22;15937;50.612;6.656;2024-03-02T02:19:30;8.90;99.90
26270;DHT22;15937;50.612;6.656;2024-03-02T02:23:32;8.90;99.90
26270;DHT22;15937;50.612;6.656;2024-03-02T02:27:34;8.90;99.90
26270;DHT22;15937;50.612;6.656;2024-03-02T02:31:42;8.90;99.90
26270;DHT22;15937;50.612;6.656;2024-03-02T02:35:44;8.80;99.90
26270;DHT22;15937;50.612;6.656;2024-03-02T02:39:46;8.80;99.90
26270;DHT22;15937;50.612;6.656;2024-03-02T02:43:48;8.80;99.90
26270;DHT22;15937;50.612;6.656;2024-03-02T02:47:50;8.80;99.90
26270;DHT22;15937;50.612;6.656;2024-03-02T02:51:52;8.80;99.90
26270;DHT22;15937;50.612;6.656;2024-03-02T02:55:54;8.80;99.90
26270;DHT22;15937;50.612;6.656;2024-03-02T02:59:56;8.80;99.90
26270;DHT22;15937;50.612;6.656;2024-03-02T03:03:58;8.70;99.90
26270;DHT22;15937;50.612;6.656;2024-03-02T03:08:01;8.70;99.90
26270;DHT22;15937;50.612;6.656;2024-03-02T03:12:05;8.60;99.90
26270;DHT22;15937;50.612;6.656;2024-03-02T03:16:07;8.60;99.90
26270;DHT22;15937;50.612;6.656;2024-03-02T03:20:10;8.60;99.90
26270;DHT22;15937;50.612;6.656;2024-03-02T03:24:12;8.60;99.90
26270;DHT22;15937;50.612;6.656;2024-03-02T03:28:14;8.60;99.90
26270;DHT22;15937;50.612;6.656;2024-03-02T03:32:16;8.50;99.90
26270;DHT22;15937;50.612;6.656;2024-03-02T03:36:18;8.50;99.90
26270;DHT22;15937;50.612;6.656;2024-03-02T03:40:20;8.40;99.90
26270;DHT22;15937;50.612;6.656;2024-03-02T03:44:22;8.40;99.90
26270;DHT22;15937;50.612;6.656;2024-03-02T03:48:24;8.30;99.90
26270;DHT22;15937;50.612;6.656;2024-03-02T03:52:32;8.20;99.90
26270;DHT22;15937;50.612;6.656;2024-03-02T03:56:35;8.20;99.90
26270;DHT22;15937;50.612;6.656;2024-03-02T04:00:37;8.20;99.90
26270;DHT22;15937;50.612;6.656;2024-03-02T04:04:39;8.10;99.90
26270;DHT22;15937;50.612;6.656;2024-03-02T04:08:43;8.10;99.90
26270;DHT22;15937;50.612;6.656;2024-03-02T04:12:45;8.00;99.90
26270;DHT22;15937;50.612;6.656;2024-03-02T04:16:47;8.00;99.90
26270;DHT22;15937;50.612;6.656;2024-03-02T04:20:49;8.00;99.90
26270;DHT22;15937;50.612;6.656;2024-03-02T04:24:54;7.90;99.90
26270;DHT22;15937;50.612;6.656;2024-03-02T04:28:57;7.90;99.90
26270;DHT22;15937;50.612;6.656;2024-03-02T04:32:59;7.90;99.90
26270;DHT22;15937;50.612;6.656;2024-03-02T04:37:03;7.90;99.90
26270;DHT22;15937;50.612;6.656;2024-03-02T04:41:06;7.90;99.90
26270;DHT22;15937;50.612;6.656;2024-03-02T04:45:08;7.70;99.90
26270;DHT22;15937;50.612;6.656;2024-03-02T04:49:10;7.70;99.90
26270;DHT22;15937;50.612;6.656;2024-03-02T04:53:12;7.70;99.90
26270;DHT22;15937;50.612;6.656;2024-03-02T04:57:14;7.60;99.90
26270;DHT22;15937;50.612;6.656;2024-03-02T05:01:16;7.50;99.90
26270;DHT22;15937;50.612;6.656;2024-03-02T05:05:21;7.30;99.90
26270;DHT22;15937;50.612;6.656;2024-03-02T05:09:23;7.20;99.90
26270;DHT22;15937;50.612;6.656;2024-03-02T05:13:25;7.10;99.90
26270;DHT22;15937;50.612;6.656;2024-03-02T05:17:27;7.00;99.90
26270;DHT22;15937;50.612;6.656;2024-03-02T05:21:29;7.00;99.90
26270;DHT22;15937;50.612;6.656;2024-03-02T05:25:31;7.00;99.90
26270;DHT22;15937;50.612;6.656;2024-03-02T05:29:34;7.00;99.90
26270;DHT22;15937;50.612;6.656;2024-03-02T05:33:37;6.90;99.90
26270;DHT22;15937;50.612;6.656;2024-03-02T05:37:40;7.00;99.90
26270;DHT22;15937;50.612;6.656;2024-03-02T05:41:42;7.00;99.90
26270;DHT22;15937;50.612;6.656;2024-03-02T05:45:44;7.00;99.90
26270;DHT22;15937;50.612;6.656;2024-03-02T05:49:46;7.00;99.90
26270;DHT22;15937;50.612;6.656;2024-03-02T05:53:48;7.00;99.90
26270;DHT22;15937;50.612;6.656;2024-03-02T05:57:51;7.00;99.90
26270;DHT22;15937;50.612;6.656;2024-03-02T06:02:08;7.00;99.90
26270;DHT22;15937;50.612;6.656;2024-03-02T06:06:10;7.00;99.90
26270;DHT22;15937;50.612;6.656;2024-03-02T06:10:12;7.10;99.90
26270;DHT22;15937;50.612;6.656;2024-03-02T06:14:15;7.10;99.90
26270;DHT22;15937;50.612;6.656;2024-03-02T06:18:17;7.10;99.90
26270;DHT22;15937;50.612;6.656;2024-03-02T06:22:20;7.10;99.90
26270;DHT22;15937;50.612;6.656;2024-03-02T06:26:23;7.20;99.90
26270;DHT22;15937;50.612;6.656;2024-03-02T06:30:26;7.20;99.90
26270;DHT22;15937;50.612;6.656;2024-03-02T06:34:28;7.20;99.90
26270;DHT22;15937;50.612;6.656;2024-03-02T06:38:31;7.00;99.90
26270;DHT22;15937;50.612;6.656;2024-03-02T06:42:35;7.00;99.90
26270;DHT22;15937;50.612;6.656;2024-03-02T06:46:38;6.80;99.90
26270;DHT22;15937;50.612;6.656;2024-03-02T06:50:40;6.80;99.90
26270;DHT22;15937;50.612;6.656;2024-03-02T06:54:42;6.80;99.90
26270;DHT22;15937;50.612;6.656;2024-03-02T06:58:44;6.90;99.90
26270;DHT22;15937;50.612;6.656;2024-03-02T07:02:46;6.80;99.90
26270;DHT22;15937;50.612;6.656;2024-03-02T07:06:49;6.80;99.90
26270;DHT22;15937;50.612;6.656;2024-03-02T07:10:53;6.80;99.90
26270;DHT22;15937;50.612;6.656;2024-03-02T07:14:55;6.80;99.90
26270;DHT22;15937;50.612;6.656;2024-03-02T07:19:06;6.80;99.90
26270;DHT22;15937;50.612;6.656;2024-03-02T07:23:09;6.80;99.90
26270;DHT22;15937;50.612;6.656;2024-03-02T07:27:12;6.80;99.90
26270;DHT22;15937;50.612;6.656;2024-03-02T07:31:14;7.00;99.90
26270;DHT22;15937;50.612;6.656;2024-03-02T07:35:17;7.10;99.90
26270;DHT22;15937;50.612;6.656;2024-03-02T07:39:20;7.20;99.90
26270;DHT22;15937;50.612;6.656;2024-03-02T07:43:33;7.50;99.90
26270;DHT22;15937;50.612;6.656;2024-03-02T07:47:35;7.80;99.90
26270;DHT22;15937;50.612;6.656;2024-03-02T07:51:37;8.00;99.90
26270;DHT22;15937;50.612;6.656;2024-03-02T07:55:40;8.10;99.90
26270;DHT22;15937;50.612;6.656;2024-03-02T07:59:42;8.40;99.90
26270;DHT22;15937;50.612;6.656;2024-03-02T08:03:45;8.50;99.90
26270;DHT22;15937;50.612;6.656;2024-03-02T08:07:49;8.70;99.90
26270;DHT22;15937;50.612;6.656;2024-03-02T08:11:56;8.90;99.90
26270;DHT22;15937;50.612;6.656;2024-03-02T08:16:00;9.20;99.90
26270;DHT22;15937;50.612;6.656;2024-03-02T08:20:02;9.20;99.90
26270;DHT22;15937;50.612;6.656;2024-03-02T08:24:05;9.30;99.90
26270;DHT22;15937;50.612;6.656;2024-03-02T08:28:07;9.40;99.90
26270;DHT22;15937;50.612;6.656;2024-03-02T08:32:10;9.10;99.90
26270;DHT22;15937;50.612;6.656;2024-03-02T08:36:12;9.10;99.90
26270;DHT22;15937;50.612;6.656;2024-03-02T08:40:15;9.40;99.90
26270;DHT22;15937;50.612;6.656;2024-03-02T08:44:20;9.40;99.90
26270;DHT22;15937;50.612;6.656;2024-03-02T08:48:22;9.50;99.90
26270;DHT22;15937;50.612;6.656;2024-03-02T08:52:24;9.80;99.90
26270;DHT22;15937;50.612;6.656;2024-03-02T08:56:26;9.60;99.90
26270;DHT22;15937;50.612;6.656;2024-03-02T09:00:29;9.50;99.90
26270;DHT22;15937;50.612;6.656;2024-03-02T09:04:31;9.50;99.90
26270;DHT22;15937;50.612;6.656;2024-03-02T09:08:36;9.50;99.90
26270;DHT22;15937;50.612;6.656;2024-03-02T09:12:38;9.60;99.90
26270;DHT22;15937;50.612;6.656;2024-03-02T09:16:41;9.60;99.90
26270;DHT22;15937;50.612;6.656;2024-03-02T09:20:45;9.80;99.90
26270;DHT22;15937;50.612;6.656;2024-03-02T09:24:47;10.00;99.90
26270;DHT22;15937;50.612;6.656;2024-03-02T09:28:50;10.00;99.90
26270;DHT22;15937;50.612;6.656;2024-03-02T09:32:52;10.30;99.90
26270;DHT22;15937;50.612;6.656;2024-03-02T09:37:14;10.30;99.90
26270;DHT22;15937;50.612;6.656;2024-03-02T09:41:17;10.20;99.90
26270;DHT22;15937;50.612;6.656;2024-03-02T09:45:23;10.30;99.90
26270;DHT22;15937;50.612;6.656;2024-03-02T09:49:25;10.60;99.90
26270;DHT22;15937;50.612;6.656;2024-03-02T09:53:33;10.70;99.90
26270;DHT22;15937;50.612;6.656;2024-03-02T09:57:36;10.70;99.90
26270;DHT22;15937;50.612;6.656;2024-03-02T10:01:58;10.80;99.90
26270;DHT22;15937;50.612;6.656;2024-03-02T10:06:20;11.00;99.90
26270;DHT22;15937;50.612;6.656;2024-03-02T10:10:22;11.20;99.90
26270;DHT22;15937;50.612;6.656;2024-03-02T10:14:25;11.50;99.90
26270;DHT22;15937;50.612;6.656;2024-03-02T10:18:27;11.40;99.90
26270;DHT22;15937;50.612;6.656;2024-03-02T10:22:31;11.40;99.90
26270;DHT22;15937;50.612;6.656;2024-03-02T10:26:33;11.50;99.90
26270;DHT22;15937;50.612;6.656;2024-03-02T10:30:37;11.40;99.90
26270;DHT22;15937;50.612;6.656;2024-03-02T10:34:40;11.50;99.90
26270;DHT22;15937;50.612;6.656;2024-03-02T10:38:46;11.70;99.90
26270;DHT22;15937;50.612;6.656;2024-03-02T10:42:50;11.50;99.90
26270;DHT22;15937;50.612;6.656;2024-03-02T10:46:55;11.60;99.90
26270;DHT22;15937;50.612;6.656;2024-03-02T10:50:58;11.60;99.90
26270;DHT22;15937;50.612;6.656;2024-03-02T10:55:03;11.70;99.90
26270;DHT22;15937;50.612;6.656;2024-03-02T11:03:33;11.90;99.90
26270;DHT22;15937;50.612;6.656;2024-03-02T11:07:37;11.80;99.90
26270;DHT22;15937;50.612;6.656;2024-03-02T11:11:42;11.90;99.90
26270;DHT22;15937;50.612;6.656;2024-03-02T11:15:45;12.10;99.90
26270;DHT22;15937;50.612;6.656;2024-03-02T11:19:47;12.40;99.90
26270;DHT22;15937;50.612;6.656;2024-03-02T11:23:49;12.50;99.90
26270;DHT22;15937;50.612;6.656;2024-03-02T11:31:59;12.70;99.90
26270;DHT22;15937;50.612;6.656;2024-03-02T11:36:07;12.60;99.90
26270;DHT22;15937;50.612;6.656;2024-03-02T11:40:11;12.60;99.90
26270;DHT22;15937;50.612;6.656;2024-03-02T11:44:14;12.70;99.90
26270;DHT22;15937;50.612;6.656;2024-03-02T11:48:19;12.60;99.90
26270;DHT22;15937;50.612;6.656;2024-03-02T11:52:22;12.70;99.90
26270;DHT22;15937;50.612;6.656;2024-03-02T11:56:25;12.90;99.90
26270;DHT22;15937;50.612;6.656;2024-03-02T12:00:28;13.30;99.90
26270;DHT22;15937;50.612;6.656;2024-03-02T12:04:31;13.20;99.90
26270;DHT22;15937;50.612;6.656;2024-03-02T12:08:33;12.90;99.90
26270;DHT22;15937;50.612;6.656;2024-03-02T12:12:35;13.20;99.90
26270;DHT22;15937;50.612;6.656;2024-03-02T12:16:37;13.20;99.90
26270;DHT22;15937;50.612;6.656;2024-03-02T12:20:40;12.90;99.90
26270;DHT22;15937;50.612;6.656;2024-03-02T12:24:43;12.50;99.90
26270;DHT22;15937;50.612;6.656;2024-03-02T12:28:47;12.40;99.90
26270;DHT22;15937;50.612;6.656;2024-03-02T12:32:52;12.70;99.90
26270;DHT22;15937;50.612;6.656;2024-03-02T12:36:56;12.80;99.90
26270;DHT22;15937;50.612;6.656;2024-03-02T12:40:58;12.70;99.90
26270;DHT22;15937;50.612;6.656;2024-03-02T12:45:00;12.50;99.90
26270;DHT22;15937;50.612;6.656;2024-03-02T12:49:11;12.30;99.90
26270;DHT22;15937;50.612;6.656;2024-03-02T12:53:15;12.50;99.90
26270;DHT22;15937;50.612;6.656;2024-03-02T12:57:21;12.20;99.90
26270;DHT22;15937;50.612;6.656;2024-03-02T13:01:23;12.40;99.90
26270;DHT22;15937;50.612;6.656;2024-03-02T13:05:30;12.60;99.90
26270;DHT22;15937;50.612;6.656;2024-03-02T13:09:32;12.60;99.90
26270;DHT22;15937;50.612;6.656;2024-03-02T13:13:35;12.50;99.90
26270;DHT22;15937;50.612;6.656;2024-03-02T13:17:38;12.60;99.90
26270;DHT22;15937;50.612;6.656;2024-03-02T13:21:41;12.90;99.90
26270;DHT22;15937;50.612;6.656;2024-03-02T13:25:44;13.20;99.90
26270;DHT22;15937;50.612;6.656;2024-03-02T13:29:47;13.30;99.90
26270;DHT22;15937;50.612;6.656;2024-03-02T13:33:49;13.40;99.90
26270;DHT22;15937;50.612;6.656;2024-03-02T13:37:51;13.20;99.90
26270;DHT22;15937;50.612;6.656;2024-03-02T13:41:53;13.10;99.90
26270;DHT22;15937;50.612;6.656;2024-03-02T13:46:04;13.20;99.90
26270;DHT22;15937;50.612;6.656;2024-03-02T13:50:07;13.20;99.90
26270;DHT22;15937;50.612;6.656;2024-03-02T13:54:09;13.20;99.90
26270;DHT22;15937;50.612;6.656;2024-03-02T13:58:11;13.30;99.90
26270;DHT22;15937;50.612;6.656;2024-03-02T14:02:13;13.10;99.90
26270;DHT22;15937;50.612;6.656;2024-03-02T14:06:15;13.00;99.90
26270;DHT22;15937;50.612;6.656;2024-03-02T14:10:17;12.80;99.90
26270;DHT22;15937;50.612;6.656;2024-03-02T14:14:24;12.80;99.90
26270;DHT22;15937;50.612;6.656;2024-03-02T14:18:26;12.90;99.90
26270;DHT22;15937;50.612;6.656;2024-03-02T14:22:29;12.80;99.90
26270;DHT22;15937;50.612;6.656;2024-03-02T14:26:31;13.00;99.90
26270;DHT22;15937;50.612;6.656;2024-03-02T14:30:34;13.00;99.90
26270;DHT22;15937;50.612;6.656;2024-03-02T14:34:37;12.90;99.90
26270;DHT22;15937;50.612;6.656;2024-03-02T14:38:41;13.00;99.90
26270;DHT22;15937;50.612;6.656;2024-03-02T14:42:43;13.30;99.90
26270;DHT22;15937;50.612;6.656;2024-03-02T14:46:49;13.40;99.90
26270;DHT22;15937;50.612;6.656;2024-03-02T14:50:53;13.20;99.90
26270;DHT22;15937;50.612;6.656;2024-03-02T14:54:55;13.30;99.90
26270;DHT22;15937;50.612;6.656;2024-03-02T14:58:57;13.20;99.90
26270;DHT22;15937;50.612;6.656;2024-03-02T15:02:59;13.30;99.90
26270;DHT22;15937;50.612;6.656;2024-03-02T15:07:02;13.20;99.90
26270;DHT22;15937;50.612;6.656;2024-03-02T15:11:04;13.10;99.90
26270;DHT22;15937;50.612;6.656;2024-03-02T15:15:06;13.00;99.90
26270;DHT22;15937;50.612;6.656;2024-03-02T15:19:09;13.00;99.90
26270;DHT22;15937;50.612;6.656;2024-03-02T15:23:11;13.00;99.90
26270;DHT22;15937;50.612;6.656;2024-03-02T15:27:13;12.80;99.90
26270;DHT22;15937;50.612;6.656;2024-03-02T15:31:15;12.70;99.90
26270;DHT22;15937;50.612;6.656;2024-03-02T15:35:19;12.70;99.90
26270;DHT22;15937;50.612;6.656;2024-03-02T15:39:21;12.70;99.90
26270;DHT22;15937;50.612;6.656;2024-03-02T15:43:23;12.70;99.90
26270;DHT22;15937;50.612;6.656;2024-03-02T15:47:26;12.60;99.90
26270;DHT22;15937;50.612;6.656;2024-03-02T15:51:28;12.50;99.90
26270;DHT22;15937;50.612;6.656;2024-03-02T15:55:30;12.40;99.90
26270;DHT22;15937;50.612;6.656;2024-03-02T15:59:32;12.40;99.90
26270;DHT22;15937;50.612;6.656;2024-03-02T16:03:34;12.40;99.90
26270;DHT22;15937;50.612;6.656;2024-03-02T16:07:36;12.40;99.90
26270;DHT22;15937;50.612;6.656;2024-03-02T16:11:39;12.40;99.90
26270;DHT22;15937;50.612;6.656;2024-03-02T16:15:41;12.30;99.90
26270;DHT22;15937;50.612;6.656;2024-03-02T16:19:43;12.30;99.90
26270;DHT22;15937;50.612;6.656;2024-03-02T16:23:46;12.30;99.90
26270;DHT22;15937;50.612;6.656;2024-03-02T16:27:48;12.30;99.90
26270;DHT22;15937;50.612;6.656;2024-03-02T16:31:50;12.20;99.90
26270;DHT22;15937;50.612;6.656;2024-03-02T16:35:52;12.20;99.90
26270;DHT22;15937;50.612;6.656;2024-03-02T16:39:54;12.20;99.90
26270;DHT22;15937;50.612;6.656;2024-03-02T16:43:57;12.20;99.90
26270;DHT22;15937;50.612;6.656;2024-03-02T16:47:59;12.20;99.90
26270;DHT22;15937;50.612;6.656;2024-03-02T16:52:01;12.10;99.90
26270;DHT22;15937;50.612;6.656;2024-03-02T16:56:03;12.20;99.90
26270;DHT22;15937;50.612;6.656;2024-03-02T17:00:06;12.00;99.90
26270;DHT22;15937;50.612;6.656;2024-03-02T17:04:09;12.00;99.90
26270;DHT22;15937;50.612;6.656;2024-03-02T17:08:12;12.00;99.90
26270;DHT22;15937;50.612;6.656;2024-03-02T17:12:14;12.00;99.90
26270;DHT22;15937;50.612;6.656;2024-03-02T17:16:16;12.00;99.90
26270;DHT22;15937;50.612;6.656;2024-03-02T17:20:20;12.00;99.90
26270;DHT22;15937;50.612;6.656;2024-03-02T17:24:25;11.90;99.90
26270;DHT22;15937;50.612;6.656;2024-03-02T17:28:27;11.90;99.90
26270;DHT22;15937;50.612;6.656;2024-03-02T17:32:33;11.90;99.90
26270;DHT22;15937;50.612;6.656;2024-03-02T17:36:36;11.90;99.90
26270;DHT22;15937;50.612;6.656;2024-03-02T17:40:38;11.80;99.90
26270;DHT22;15937;50.612;6.656;2024-03-02T17:44:39;11.90;99.90
26270;DHT22;15937;50.612;6.656;2024-03-02T17:48:43;11.80;99.90
26270;DHT22;15937;50.612;6.656;2024-03-02T17:52:46;11.80;99.90
26270;DHT22;15937;50.612;6.656;2024-03-02T17:56:49;11.80;99.90
26270;DHT22;15937;50.612;6.656;2024-03-02T18:00:51;11.80;99.90
26270;DHT22;15937;50.612;6.656;2024-03-02T18:04:55;11.70;99.90
26270;DHT22;15937;50.612;6.656;2024-03-02T18:08:57;11.80;99.90
26270;DHT22;15937;50.612;6.656;2024-03-02T18:12:59;11.70;99.90
26270;DHT22;15937;50.612;6.656;2024-03-02T18:17:02;11.70;99.90
26270;DHT22;15937;50.612;6.656;2024-03-02T18:21:04;11.70;99.90
26270;DHT22;15937;50.612;6.656;2024-03-02T18:25:07;11.60;99.90
26270;DHT22;15937;50.612;6.656;2024-03-02T18:29:09;11.50;99.90
26270;DHT22;15937;50.612;6.656;2024-03-02T18:33:11;11.40;99.90
26270;DHT22;15937;50.612;6.656;2024-03-02T18:37:13;11.30;99.90
26270;DHT22;15937;50.612;6.656;2024-03-02T18:41:16;11.10;99.90
26270;DHT22;15937;50.612;6.656;2024-03-02T18:45:18;11.10;99.90
26270;DHT22;15937;50.612;6.656;2024-03-02T18:49:21;11.10;99.90
26270;DHT22;15937;50.612;6.656;2024-03-02T18:53:25;11.10;99.90
26270;DHT22;15937;50.612;6.656;2024-03-02T18:57:27;11.10;99.90
26270;DHT22;15937;50.612;6.656;2024-03-02T19:01:29;11.20;99.90
26270;DHT22;15937;50.612;6.656;2024-03-02T19:05:31;11.10;99.90
26270;DHT22;15937;50.612;6.656;2024-03-02T19:09:33;11.00;99.90
26270;DHT22;15937;50.612;6.656;2024-03-02T19:13:36;11.10;99.90
26270;DHT22;15937;50.612;6.656;2024-03-02T19:17:38;11.10;99.90
26270;DHT22;15937;50.612;6.656;2024-03-02T19:21:40;11.10;99.90
26270;DHT22;15937;50.612;6.656;2024-03-02T19:25:42;11.10;99.90
26270;DHT22;15937;50.612;6.656;2024-03-02T19:29:44;11.20;99.90
26270;DHT22;15937;50.612;6.656;2024-03-02T19:33:47;11.20;99.90
26270;DHT22;15937;50.612;6.656;2024-03-02T19:37:49;11.10;99.90
26270;DHT22;15937;50.612;6.656;2024-03-02T19:41:53;11.10;99.90
26270;DHT22;15937;50.612;6.656;2024-03-02T19:45:56;11.10;99.90
26270;DHT22;15937;50.612;6.656;2024-03-02T19:49:59;11.10;99.90
26270;DHT22;15937;50.612;6.656;2024-03-02T19:54:01;11.00;99.90
26270;DHT22;15937;50.612;6.656;2024-03-02T19:58:05;10.90;99.90
26270;DHT22;15937;50.612;6.656;2024-03-02T20:02:07;10.90;99.90
26270;DHT22;15937;50.612;6.656;2024-03-02T20:06:20;10.80;99.90
26270;DHT22;15937;50.612;6.656;2024-03-02T20:10:22;10.80;99.90
26270;DHT22;15937;50.612;6.656;2024-03-02T20:14:24;10.80;99.90
26270;DHT22;15937;50.612;6.656;2024-03-02T20:18:27;10.80;99.90
26270;DHT22;15937;50.612;6.656;2024-03-02T20:22:29;10.80;99.90
26270;DHT22;15937;50.612;6.656;2024-03-02T20:26:31;10.70;99.90
26270;DHT22;15937;50.612;6.656;2024-03-02T20:30:33;10.80;99.90
26270;DHT22;15937;50.612;6.656;2024-03-02T20:34:36;10.80;99.90
26270;DHT22;15937;50.612;6.656;2024-03-02T20:38:38;10.80;99.90
26270;DHT22;15937;50.612;6.656;2024-03-02T20:42:40;10.80;99.90
26270;DHT22;15937;50.612;6.656;2024-03-02T20:46:46;10.80;99.90
26270;DHT22;15937;50.612;6.656;2024-03-02T20:50:48;10.80;99.90
26270;DHT22;15937;50.612;6.656;2024-03-02T20:54:50;10.80;99.90
26270;DHT22;15937;50.612;6.656;2024-03-02T20:58:53;10.70;99.90
26270;DHT22;15937;50.612;6.656;2024-03-02T21:02:55;10.70;99.90
26270;DHT22;15937;50.612;6.656;2024-03-02T21:06:57;10.60;99.90
26270;DHT22;15937;50.612;6.656;2024-03-02T21:10:59;10.60;99.90
26270;DHT22;15937;50.612;6.656;2024-03-02T21:15:06;10.60;99.90
26270;DHT22;15937;50.612;6.656;2024-03-02T21:19:08;10.60;99.90
26270;DHT22;15937;50.612;6.656;2024-03-02T21:23:11;10.60;99.90
26270;DHT22;15937;50.612;6.656;2024-03-02T21:27:16;10.50;99.90
26270;DHT22;15937;50.612;6.656;2024-03-02T21:31:21;10.60;99.90
26270;DHT22;15937;50.612;6.656;2024-03-02T21:35:24;10.70;99.90
26270;DHT22;15937;50.612;6.656;2024-03-02T21:39:29;10.70;99.90
26270;DHT22;15937;50.612;6.656;2024-03-02T21:43:43;10.80;99.90
26270;DHT22;15937;50.612;6.656;2024-03-02T21:47:45;10.80;99.90
26270;DHT22;15937;50.612;6.656;2024-03-02T21:51:48;10.80;99.90
26270;DHT22;15937;50.612;6.656;2024-03-02T21:55:51;10.80;99.90
26270;DHT22;15937;50.612;6.656;2024-03-02T21:59:52;10.80;99.90
26270;DHT22;15937;50.612;6.656;2024-03-02T22:03:54;10.80;99.90
26270;DHT22;15937;50.612;6.656;2024-03-02T22:07:56;10.70;99.90
26270;DHT22;15937;50.612;6.656;2024-03-02T22:11:59;10.60;99.90
26270;DHT22;15937;50.612;6.656;2024-03-02T22:16:04;10.60;99.90
26270;DHT22;15937;50.612;6.656;2024-03-02T22:20:06;10.30;99.90
26270;DHT22;15937;50.612;6.656;2024-03-02T22:24:12;10.10;99.90
26270;DHT22;15937;50.612;6.656;2024-03-02T22:28:15;10.10;99.90
26270;DHT22;15937;50.612;6.656;2024-03-02T22:32:17;10.10;99.90
26270;DHT22;15937;50.612;6.656;2024-03-02T22:36:19;10.10;99.90
26270;DHT22;15937;50.612;6.656;2024-03-02T22:40:22;10.00;99.90
26270;DHT22;15937;50.612;6.656;2024-03-02T22:44:25;10.00;99.90
26270;DHT22;15937;50.612;6.656;2024-03-02T22:48:27;9.80;99.90
26270;DHT22;15937;50.612;6.656;2024-03-02T22:52:29;9.70;99.90
26270;DHT22;15937;50.612;6.656;2024-03-02T22:56:31;9.80;99.90
26270;DHT22;15937;50.612;6.656;2024-03-02T23:00:33;9.70;99.90
26270;DHT22;15937;50.612;6.656;2024-03-02T23:04:38;9.60;99.90
26270;DHT22;15937;50.612;6.656;2024-03-02T23:08:40;9.70;99.90
26270;DHT22;15937;50.612;6.656;2024-03-02T23:12:42;9.60;99.90
26270;DHT22;15937;50.612;6.656;2024-03-02T23:16:44;9.50;99.90
26270;DHT22;15937;50.612;6.656;2024-03-02T23:20:47;9.20;99.90
26270;DHT22;15937;50.612;6.656;2024-03-02T23:24:49;9.30;99.90
26270;DHT22;15937;50.612;6.656;2024-03-02T23:28:51;9.00;99.90
26270;DHT22;15937;50.612;6.656;2024-03-02T23:32:53;9.10;99.90
26270;DHT22;15937;50.612;6.656;2024-03-02T23:36:55;9.20;99.90
26270;DHT22;15937;50.612;6.656;2024-03-02T23:40:58;9.10;99.90
26270;DHT22;15937;50.612;6.656;2024-03-02T23:45:09;9.20;99.90
26270;DHT22;15937;50.612;6.656;2024-03-02T23:49:11;9.20;99.90
26270;DHT22;15937;50.612;6.656;2024-03-02T23:53:14;9.20;99.90
26270;DHT22;15937;50.612;6.656;2024-03-02T23:57:16;9.20;99.90
